sensor_id;sensor_type;location;lat;lon;timestamp;P1;durP1;ratioP1;P2;durP2;ratioP2
13463;SDS011;6804;48.774;9.174;2022-08-21T00:02:16;2.00;;;1.60;;
13463;SDS011;6804;48.774;9.174;2022-08-21T00:04:45;2.23;;;1.60;;
13463;SDS011;6804;48.774;9.174;2022-08-21T00:07:14;4.50;;;2.00;;
13463;SDS011;6804;48.774;9.174;2022-08-21T00:09:46;3.83;;;1.83;;
13463;SDS011;6804;48.774;9.174;2022-08-21T00:12:17;4.27;;;1.77;;
13463;SDS011;6804;48.774;9.174;2022-08-21T00:14:48;2.83;;;1.90;;
13463;SDS011;6804;48.774;9.174;2022-08-21T00:17:16;3.10;;;2.10;;
13463;SDS011;6804;48.774;9.174;2022-08-21T00:19:44;4.27;;;2.20;;
13463;SDS011;6804;48.774;9.174;2022-08-21T00:22:13;2.97;;;1.80;;
13463;SDS011;6804;48.774;9.174;2022-08-21T00:24:43;5.27;;;2.33;;
13463;SDS011;6804;48.774;9.174;2022-08-21T00:27:11;4.17;;;2.40;;
13463;SDS011;6804;48.774;9.174;2022-08-21T00:29:47;4.23;;;2.70;;
13463;SDS011;6804;48.774;9.174;2022-08-21T00:32:19;4.63;;;2.50;;
13463;SDS011;6804;48.774;9.174;2022-08-21T00:34:47;3.37;;;2.30;;
13463;SDS011;6804;48.774;9.174;2022-08-21T00:37:15;3.83;;;2.17;;
13463;SDS011;6804;48.774;9.174;2022-08-21T00:39:44;2.80;;;2.30;;
13463;SDS011;6804;48.774;9.174;2022-08-21T00:42:13;4.40;;;2.13;;
13463;SDS011;6804;48.774;9.174;2022-08-21T00:44:41;6.17;;;4.50;;
13463;SDS011;6804;48.774;9.174;2022-08-21T00:47:12;4.07;;;2.30;;
13463;SDS011;6804;48.774;9.174;2022-08-21T00:49:40;3.97;;;2.03;;
13463;SDS011;6804;48.774;9.174;2022-08-21T00:52:09;4.03;;;2.20;;
13463;SDS011;6804;48.774;9.174;2022-08-21T00:54:50;3.07;;;1.87;;
13463;SDS011;6804;48.774;9.174;2022-08-21T00:57:22;3.67;;;2.23;;
13463;SDS011;6804;48.774;9.174;2022-08-21T00:59:57;4.03;;;2.60;;
13463;SDS011;6804;48.774;9.174;2022-08-21T01:02:27;1.87;;;1.67;;
13463;SDS011;6804;48.774;9.174;2022-08-21T01:04:58;3.50;;;1.90;;
13463;SDS011;6804;48.774;9.174;2022-08-21T01:07:25;3.00;;;2.00;;
13463;SDS011;6804;48.774;9.174;2022-08-21T01:09:55;5.17;;;2.33;;
13463;SDS011;6804;48.774;9.174;2022-08-21T01:12:22;3.83;;;2.13;;
13463;SDS011;6804;48.774;9.174;2022-08-21T01:14:54;3.13;;;2.10;;
13463;SDS011;6804;48.774;9.174;2022-08-21T01:17:23;4.30;;;1.90;;
13463;SDS011;6804;48.774;9.174;2022-08-21T01:19:51;3.23;;;2.00;;
13463;SDS011;6804;48.774;9.174;2022-08-21T01:22:20;2.53;;;1.83;;
13463;SDS011;6804;48.774;9.174;2022-08-21T01:24:48;2.07;;;1.80;;
13463;SDS011;6804;48.774;9.174;2022-08-21T01:27:18;4.20;;;1.90;;
13463;SDS011;6804;48.774;9.174;2022-08-21T01:29:50;3.20;;;2.10;;
13463;SDS011;6804;48.774;9.174;2022-08-21T01:32:21;4.43;;;2.20;;
13463;SDS011;6804;48.774;9.174;2022-08-21T01:34:50;3.40;;;1.77;;
13463;SDS011;6804;48.774;9.174;2022-08-21T01:37:22;5.83;;;2.47;;
13463;SDS011;6804;48.774;9.174;2022-08-21T01:39:50;4.40;;;1.97;;
13463;SDS011;6804;48.774;9.174;2022-08-21T01:42:17;2.50;;;1.90;;
13463;SDS011;6804;48.774;9.174;2022-08-21T01:44:45;3.10;;;1.70;;
13463;SDS011;6804;48.774;9.174;2022-08-21T01:47:14;2.53;;;2.03;;
13463;SDS011;6804;48.774;9.174;2022-08-21T01:49:43;2.83;;;1.83;;
13463;SDS011;6804;48.774;9.174;2022-08-21T01:54:45;2.30;;;2.10;;
13463;SDS011;6804;48.774;9.174;2022-08-21T01:57:15;3.80;;;1.87;;
13463;SDS011;6804;48.774;9.174;2022-08-21T01:59:45;3.00;;;1.97;;
13463;SDS011;6804;48.774;9.174;2022-08-21T02:02:15;3.70;;;2.00;;
13463;SDS011;6804;48.774;9.174;2022-08-21T02:04:45;3.90;;;2.00;;
13463;SDS011;6804;48.774;9.174;2022-08-21T02:07:14;3.73;;;2.00;;
13463;SDS011;6804;48.774;9.174;2022-08-21T02:09:41;3.00;;;2.10;;
13463;SDS011;6804;48.774;9.174;2022-08-21T02:12:13;2.87;;;2.10;;
13463;SDS011;6804;48.774;9.174;2022-08-21T02:14:43;2.83;;;2.00;;
13463;SDS011;6804;48.774;9.174;2022-08-21T02:17:11;2.87;;;2.03;;
13463;SDS011;6804;48.774;9.174;2022-08-21T02:19:40;5.07;;;2.60;;
13463;SDS011;6804;48.774;9.174;2022-08-21T02:22:08;4.23;;;2.20;;
13463;SDS011;6804;48.774;9.174;2022-08-21T02:24:36;4.03;;;2.10;;
13463;SDS011;6804;48.774;9.174;2022-08-21T02:27:05;5.20;;;2.23;;
13463;SDS011;6804;48.774;9.174;2022-08-21T02:29:35;3.43;;;2.13;;
13463;SDS011;6804;48.774;9.174;2022-08-21T02:32:03;3.37;;;2.00;;
13463;SDS011;6804;48.774;9.174;2022-08-21T02:34:30;3.03;;;1.97;;
13463;SDS011;6804;48.774;9.174;2022-08-21T02:37:01;4.67;;;2.20;;
13463;SDS011;6804;48.774;9.174;2022-08-21T02:39:28;3.43;;;2.10;;
13463;SDS011;6804;48.774;9.174;2022-08-21T02:41:56;3.67;;;1.70;;
13463;SDS011;6804;48.774;9.174;2022-08-21T02:44:25;3.60;;;2.23;;
13463;SDS011;6804;48.774;9.174;2022-08-21T02:46:54;5.80;;;2.40;;
13463;SDS011;6804;48.774;9.174;2022-08-21T02:49:21;2.80;;;2.10;;
13463;SDS011;6804;48.774;9.174;2022-08-21T02:51:49;3.67;;;2.57;;
13463;SDS011;6804;48.774;9.174;2022-08-21T02:54:16;5.77;;;2.43;;
13463;SDS011;6804;48.774;9.174;2022-08-21T02:56:44;3.60;;;2.20;;
13463;SDS011;6804;48.774;9.174;2022-08-21T02:59:11;4.63;;;2.20;;
13463;SDS011;6804;48.774;9.174;2022-08-21T03:01:39;2.60;;;2.30;;
13463;SDS011;6804;48.774;9.174;2022-08-21T03:04:11;3.60;;;2.33;;
13463;SDS011;6804;48.774;9.174;2022-08-21T03:06:40;3.17;;;1.80;;
13463;SDS011;6804;48.774;9.174;2022-08-21T03:09:15;2.43;;;2.17;;
13463;SDS011;6804;48.774;9.174;2022-08-21T03:11:42;4.80;;;2.10;;
13463;SDS011;6804;48.774;9.174;2022-08-21T03:14:09;5.53;;;2.30;;
13463;SDS011;6804;48.774;9.174;2022-08-21T03:16:42;3.90;;;2.27;;
13463;SDS011;6804;48.774;9.174;2022-08-21T03:19:12;3.83;;;2.10;;
13463;SDS011;6804;48.774;9.174;2022-08-21T03:21:40;3.27;;;2.20;;
13463;SDS011;6804;48.774;9.174;2022-08-21T03:24:09;4.40;;;2.07;;
13463;SDS011;6804;48.774;9.174;2022-08-21T03:26:36;4.33;;;2.17;;
13463;SDS011;6804;48.774;9.174;2022-08-21T03:29:06;3.93;;;2.00;;
13463;SDS011;6804;48.774;9.174;2022-08-21T03:31:34;3.50;;;2.13;;
13463;SDS011;6804;48.774;9.174;2022-08-21T03:34:02;2.33;;;1.80;;
13463;SDS011;6804;48.774;9.174;2022-08-21T03:36:31;4.43;;;2.73;;
13463;SDS011;6804;48.774;9.174;2022-08-21T03:38:58;2.57;;;2.10;;
13463;SDS011;6804;48.774;9.174;2022-08-21T03:41:31;3.30;;;1.90;;
13463;SDS011;6804;48.774;9.174;2022-08-21T03:43:58;4.63;;;2.10;;
13463;SDS011;6804;48.774;9.174;2022-08-21T03:46:29;3.53;;;2.00;;
13463;SDS011;6804;48.774;9.174;2022-08-21T03:48:57;2.93;;;2.20;;
13463;SDS011;6804;48.774;9.174;2022-08-21T03:51:27;3.90;;;1.97;;
13463;SDS011;6804;48.774;9.174;2022-08-21T03:54:03;3.87;;;2.33;;
13463;SDS011;6804;48.774;9.174;2022-08-21T03:56:30;4.20;;;2.33;;
13463;SDS011;6804;48.774;9.174;2022-08-21T03:59:03;2.43;;;1.70;;
13463;SDS011;6804;48.774;9.174;2022-08-21T04:01:31;3.83;;;1.93;;
13463;SDS011;6804;48.774;9.174;2022-08-21T04:03:58;2.40;;;1.80;;
13463;SDS011;6804;48.774;9.174;2022-08-21T04:06:26;4.33;;;2.10;;
13463;SDS011;6804;48.774;9.174;2022-08-21T04:08:55;4.30;;;2.13;;
13463;SDS011;6804;48.774;9.174;2022-08-21T04:11:24;3.43;;;2.00;;
13463;SDS011;6804;48.774;9.174;2022-08-21T04:13:52;4.33;;;2.20;;
13463;SDS011;6804;48.774;9.174;2022-08-21T04:16:20;2.60;;;1.80;;
13463;SDS011;6804;48.774;9.174;2022-08-21T04:18:51;3.57;;;2.30;;
13463;SDS011;6804;48.774;9.174;2022-08-21T04:21:21;3.80;;;2.13;;
13463;SDS011;6804;48.774;9.174;2022-08-21T04:23:53;4.03;;;1.97;;
13463;SDS011;6804;48.774;9.174;2022-08-21T04:26:23;4.27;;;2.00;;
13463;SDS011;6804;48.774;9.174;2022-08-21T04:28:52;4.07;;;2.10;;
13463;SDS011;6804;48.774;9.174;2022-08-21T04:31:20;4.03;;;2.40;;
13463;SDS011;6804;48.774;9.174;2022-08-21T04:33:47;3.10;;;2.10;;
13463;SDS011;6804;48.774;9.174;2022-08-21T04:36:20;2.60;;;1.83;;
13463;SDS011;6804;48.774;9.174;2022-08-21T04:38:48;3.00;;;2.40;;
13463;SDS011;6804;48.774;9.174;2022-08-21T04:41:18;2.87;;;2.20;;
13463;SDS011;6804;48.774;9.174;2022-08-21T04:43:47;2.40;;;2.00;;
13463;SDS011;6804;48.774;9.174;2022-08-21T04:46:16;2.90;;;2.03;;
13463;SDS011;6804;48.774;9.174;2022-08-21T04:48:44;3.57;;;2.30;;
13463;SDS011;6804;48.774;9.174;2022-08-21T04:51:13;4.37;;;1.97;;
13463;SDS011;6804;48.774;9.174;2022-08-21T04:53:44;3.70;;;2.50;;
13463;SDS011;6804;48.774;9.174;2022-08-21T04:56:18;2.43;;;2.23;;
13463;SDS011;6804;48.774;9.174;2022-08-21T04:58:53;3.07;;;2.10;;
13463;SDS011;6804;48.774;9.174;2022-08-21T05:01:23;3.93;;;2.40;;
13463;SDS011;6804;48.774;9.174;2022-08-21T05:03:56;3.77;;;2.20;;
13463;SDS011;6804;48.774;9.174;2022-08-21T05:06:27;4.63;;;2.63;;
13463;SDS011;6804;48.774;9.174;2022-08-21T05:08:58;2.77;;;2.20;;
13463;SDS011;6804;48.774;9.174;2022-08-21T05:11:26;4.17;;;2.20;;
13463;SDS011;6804;48.774;9.174;2022-08-21T05:13:55;2.73;;;2.17;;
13463;SDS011;6804;48.774;9.174;2022-08-21T05:16:24;3.23;;;2.30;;
13463;SDS011;6804;48.774;9.174;2022-08-21T05:18:51;3.00;;;2.13;;
13463;SDS011;6804;48.774;9.174;2022-08-21T05:21:19;2.87;;;2.00;;
13463;SDS011;6804;48.774;9.174;2022-08-21T05:23:50;3.83;;;2.30;;
13463;SDS011;6804;48.774;9.174;2022-08-21T05:26:18;3.37;;;1.97;;
13463;SDS011;6804;48.774;9.174;2022-08-21T05:28:45;2.83;;;2.13;;
13463;SDS011;6804;48.774;9.174;2022-08-21T05:31:15;2.47;;;2.03;;
13463;SDS011;6804;48.774;9.174;2022-08-21T05:33:42;3.70;;;2.40;;
13463;SDS011;6804;48.774;9.174;2022-08-21T05:36:13;3.20;;;2.07;;
13463;SDS011;6804;48.774;9.174;2022-08-21T05:38:40;3.30;;;2.33;;
13463;SDS011;6804;48.774;9.174;2022-08-21T05:41:08;3.23;;;2.30;;
13463;SDS011;6804;48.774;9.174;2022-08-21T05:43:36;4.13;;;2.27;;
13463;SDS011;6804;48.774;9.174;2022-08-21T05:46:07;5.13;;;2.57;;
13463;SDS011;6804;48.774;9.174;2022-08-21T05:48:36;2.73;;;2.13;;
13463;SDS011;6804;48.774;9.174;2022-08-21T05:51:04;4.10;;;2.20;;
13463;SDS011;6804;48.774;9.174;2022-08-21T05:53:33;3.90;;;2.43;;
13463;SDS011;6804;48.774;9.174;2022-08-21T05:56:01;3.40;;;2.47;;
13463;SDS011;6804;48.774;9.174;2022-08-21T05:58:31;3.70;;;2.10;;
13463;SDS011;6804;48.774;9.174;2022-08-21T06:01:00;3.27;;;2.20;;
13463;SDS011;6804;48.774;9.174;2022-08-21T06:03:33;3.17;;;2.20;;
13463;SDS011;6804;48.774;9.174;2022-08-21T06:06:03;3.37;;;2.20;;
13463;SDS011;6804;48.774;9.174;2022-08-21T06:08:31;3.03;;;2.40;;
13463;SDS011;6804;48.774;9.174;2022-08-21T06:11:00;3.23;;;2.20;;
13463;SDS011;6804;48.774;9.174;2022-08-21T06:13:29;3.07;;;2.30;;
13463;SDS011;6804;48.774;9.174;2022-08-21T06:16:06;3.07;;;2.00;;
13463;SDS011;6804;48.774;9.174;2022-08-21T06:18:35;3.77;;;2.33;;
13463;SDS011;6804;48.774;9.174;2022-08-21T06:21:04;3.20;;;2.03;;
13463;SDS011;6804;48.774;9.174;2022-08-21T06:23:32;3.43;;;2.20;;
13463;SDS011;6804;48.774;9.174;2022-08-21T06:26:05;2.97;;;2.15;;
13463;SDS011;6804;48.774;9.174;2022-08-21T06:28:36;4.78;;;2.08;;
13463;SDS011;6804;48.774;9.174;2022-08-21T06:31:09;2.90;;;2.03;;
13463;SDS011;6804;48.774;9.174;2022-08-21T06:33:38;2.80;;;1.88;;
13463;SDS011;6804;48.774;9.174;2022-08-21T06:36:07;3.97;;;2.45;;
13463;SDS011;6804;48.774;9.174;2022-08-21T06:38:34;3.20;;;2.20;;
13463;SDS011;6804;48.774;9.174;2022-08-21T06:41:02;3.67;;;2.30;;
13463;SDS011;6804;48.774;9.174;2022-08-21T06:43:30;5.13;;;2.20;;
13463;SDS011;6804;48.774;9.174;2022-08-21T06:45:57;2.70;;;2.17;;
13463;SDS011;6804;48.774;9.174;2022-08-21T06:48:25;6.13;;;2.72;;
13463;SDS011;6804;48.774;9.174;2022-08-21T06:50:52;3.50;;;2.53;;
13463;SDS011;6804;48.774;9.174;2022-08-21T06:53:22;3.85;;;2.90;;
13463;SDS011;6804;48.774;9.174;2022-08-21T06:55:49;4.30;;;2.63;;
13463;SDS011;6804;48.774;9.174;2022-08-21T06:58:17;4.15;;;2.60;;
13463;SDS011;6804;48.774;9.174;2022-08-21T07:00:47;5.68;;;2.42;;
13463;SDS011;6804;48.774;9.174;2022-08-21T07:03:17;3.85;;;2.88;;
13463;SDS011;6804;48.774;9.174;2022-08-21T07:05:46;4.47;;;2.90;;
13463;SDS011;6804;48.774;9.174;2022-08-21T07:08:14;3.00;;;2.22;;
13463;SDS011;6804;48.774;9.174;2022-08-21T07:10:45;4.35;;;2.50;;
13463;SDS011;6804;48.774;9.174;2022-08-21T07:13:14;4.25;;;2.92;;
13463;SDS011;6804;48.774;9.174;2022-08-21T07:15:45;4.43;;;2.65;;
13463;SDS011;6804;48.774;9.174;2022-08-21T07:18:13;5.53;;;2.90;;
13463;SDS011;6804;48.774;9.174;2022-08-21T07:20:44;5.75;;;2.72;;
13463;SDS011;6804;48.774;9.174;2022-08-21T07:23:14;4.97;;;2.95;;
13463;SDS011;6804;48.774;9.174;2022-08-21T07:25:50;4.18;;;2.70;;
13463;SDS011;6804;48.774;9.174;2022-08-21T07:28:17;4.47;;;3.03;;
13463;SDS011;6804;48.774;9.174;2022-08-21T07:30:45;6.45;;;3.15;;
13463;SDS011;6804;48.774;9.174;2022-08-21T07:33:12;4.22;;;2.40;;
13463;SDS011;6804;48.774;9.174;2022-08-21T07:35:42;6.00;;;2.95;;
13463;SDS011;6804;48.774;9.174;2022-08-21T07:38:12;4.32;;;2.55;;
13463;SDS011;6804;48.774;9.174;2022-08-21T07:40:43;5.43;;;3.05;;
13463;SDS011;6804;48.774;9.174;2022-08-21T07:43:18;5.22;;;3.00;;
13463;SDS011;6804;48.774;9.174;2022-08-21T07:45:47;6.03;;;3.03;;
13463;SDS011;6804;48.774;9.174;2022-08-21T07:48:18;5.63;;;3.83;;
13463;SDS011;6804;48.774;9.174;2022-08-21T07:50:46;6.18;;;3.63;;
13463;SDS011;6804;48.774;9.174;2022-08-21T07:53:14;5.65;;;3.33;;
13463;SDS011;6804;48.774;9.174;2022-08-21T07:55:43;7.57;;;3.03;;
13463;SDS011;6804;48.774;9.174;2022-08-21T07:58:13;4.05;;;2.88;;
13463;SDS011;6804;48.774;9.174;2022-08-21T08:00:43;4.47;;;3.47;;
13463;SDS011;6804;48.774;9.174;2022-08-21T08:03:14;4.90;;;3.08;;
13463;SDS011;6804;48.774;9.174;2022-08-21T08:05:41;7.18;;;3.08;;
13463;SDS011;6804;48.774;9.174;2022-08-21T08:08:08;6.50;;;3.03;;
13463;SDS011;6804;48.774;9.174;2022-08-21T08:10:36;7.13;;;2.95;;
13463;SDS011;6804;48.774;9.174;2022-08-21T08:13:04;6.78;;;3.22;;
13463;SDS011;6804;48.774;9.174;2022-08-21T08:15:32;7.30;;;3.00;;
13463;SDS011;6804;48.774;9.174;2022-08-21T08:18:01;4.45;;;3.20;;
13463;SDS011;6804;48.774;9.174;2022-08-21T08:20:29;4.88;;;3.10;;
13463;SDS011;6804;48.774;9.174;2022-08-21T08:22:56;4.93;;;3.08;;
13463;SDS011;6804;48.774;9.174;2022-08-21T08:25:29;5.03;;;3.03;;
13463;SDS011;6804;48.774;9.174;2022-08-21T08:27:59;6.38;;;3.35;;
13463;SDS011;6804;48.774;9.174;2022-08-21T08:30:26;6.68;;;3.10;;
13463;SDS011;6804;48.774;9.174;2022-08-21T08:32:54;5.25;;;3.03;;
13463;SDS011;6804;48.774;9.174;2022-08-21T08:35:26;5.00;;;3.17;;
13463;SDS011;6804;48.774;9.174;2022-08-21T08:37:54;5.55;;;3.25;;
13463;SDS011;6804;48.774;9.174;2022-08-21T08:40:32;5.50;;;3.28;;
13463;SDS011;6804;48.774;9.174;2022-08-21T08:43:05;5.13;;;3.00;;
13463;SDS011;6804;48.774;9.174;2022-08-21T08:45:34;5.88;;;3.10;;
13463;SDS011;6804;48.774;9.174;2022-08-21T08:48:06;5.32;;;3.05;;
13463;SDS011;6804;48.774;9.174;2022-08-21T08:50:44;3.50;;;2.75;;
13463;SDS011;6804;48.774;9.174;2022-08-21T08:53:22;4.30;;;2.80;;
13463;SDS011;6804;48.774;9.174;2022-08-21T08:56:00;4.40;;;2.92;;
13463;SDS011;6804;48.774;9.174;2022-08-21T08:58:31;5.95;;;2.70;;
13463;SDS011;6804;48.774;9.174;2022-08-21T09:01:00;4.68;;;3.00;;
13463;SDS011;6804;48.774;9.174;2022-08-21T09:03:31;4.18;;;2.90;;
13463;SDS011;6804;48.774;9.174;2022-08-21T09:06:03;5.15;;;2.85;;
13463;SDS011;6804;48.774;9.174;2022-08-21T09:08:41;5.85;;;3.30;;
13463;SDS011;6804;48.774;9.174;2022-08-21T09:11:21;4.90;;;3.42;;
13463;SDS011;6804;48.774;9.174;2022-08-21T09:13:58;5.35;;;3.30;;
13463;SDS011;6804;48.774;9.174;2022-08-21T09:16:36;7.07;;;3.40;;
13463;SDS011;6804;48.774;9.174;2022-08-21T09:19:11;3.85;;;2.95;;
13463;SDS011;6804;48.774;9.174;2022-08-21T09:21:53;4.95;;;2.80;;
13463;SDS011;6804;48.774;9.174;2022-08-21T09:24:40;5.30;;;2.88;;
13463;SDS011;6804;48.774;9.174;2022-08-21T09:27:17;5.47;;;3.30;;
13463;SDS011;6804;48.774;9.174;2022-08-21T09:29:49;4.32;;;2.97;;
13463;SDS011;6804;48.774;9.174;2022-08-21T09:32:23;4.93;;;2.90;;
13463;SDS011;6804;48.774;9.174;2022-08-21T09:35:04;4.53;;;3.00;;
13463;SDS011;6804;48.774;9.174;2022-08-21T09:37:46;4.40;;;3.05;;
13463;SDS011;6804;48.774;9.174;2022-08-21T09:40:23;6.90;;;3.20;;
13463;SDS011;6804;48.774;9.174;2022-08-21T09:42:57;5.60;;;3.03;;
13463;SDS011;6804;48.774;9.174;2022-08-21T09:45:26;5.30;;;3.28;;
13463;SDS011;6804;48.774;9.174;2022-08-21T09:48:07;4.10;;;3.17;;
13463;SDS011;6804;48.774;9.174;2022-08-21T09:50:36;5.95;;;2.83;;
13463;SDS011;6804;48.774;9.174;2022-08-21T09:53:05;5.40;;;3.33;;
13463;SDS011;6804;48.774;9.174;2022-08-21T09:55:46;4.97;;;2.75;;
13463;SDS011;6804;48.774;9.174;2022-08-21T09:58:35;4.72;;;3.10;;
13463;SDS011;6804;48.774;9.174;2022-08-21T10:01:04;7.70;;;3.50;;
13463;SDS011;6804;48.774;9.174;2022-08-21T10:03:33;7.15;;;3.35;;
13463;SDS011;6804;48.774;9.174;2022-08-21T10:06:02;5.93;;;3.47;;
13463;SDS011;6804;48.774;9.174;2022-08-21T10:08:36;5.45;;;2.92;;
13463;SDS011;6804;48.774;9.174;2022-08-21T10:11:05;5.57;;;3.13;;
13463;SDS011;6804;48.774;9.174;2022-08-21T10:13:39;3.55;;;2.88;;
13463;SDS011;6804;48.774;9.174;2022-08-21T10:16:21;4.15;;;3.03;;
13463;SDS011;6804;48.774;9.174;2022-08-21T10:19:10;6.22;;;3.70;;
13463;SDS011;6804;48.774;9.174;2022-08-21T10:21:48;4.43;;;2.92;;
13463;SDS011;6804;48.774;9.174;2022-08-21T10:24:29;5.40;;;3.50;;
13463;SDS011;6804;48.774;9.174;2022-08-21T10:27:03;7.30;;;2.95;;
13463;SDS011;6804;48.774;9.174;2022-08-21T10:29:39;4.45;;;2.90;;
13463;SDS011;6804;48.774;9.174;2022-08-21T10:32:22;6.60;;;3.60;;
13463;SDS011;6804;48.774;9.174;2022-08-21T10:35:04;4.72;;;2.97;;
13463;SDS011;6804;48.774;9.174;2022-08-21T10:37:40;4.90;;;3.40;;
13463;SDS011;6804;48.774;9.174;2022-08-21T10:40:24;5.78;;;3.63;;
13463;SDS011;6804;48.774;9.174;2022-08-21T10:43:02;7.50;;;3.53;;
13463;SDS011;6804;48.774;9.174;2022-08-21T10:45:43;4.90;;;3.10;;
13463;SDS011;6804;48.774;9.174;2022-08-21T10:48:22;5.32;;;3.20;;
13463;SDS011;6804;48.774;9.174;2022-08-21T10:50:56;3.60;;;2.75;;
13463;SDS011;6804;48.774;9.174;2022-08-21T10:53:34;4.18;;;2.97;;
13463;SDS011;6804;48.774;9.174;2022-08-21T10:56:15;6.55;;;3.20;;
13463;SDS011;6804;48.774;9.174;2022-08-21T10:58:46;11.13;;;6.45;;
13463;SDS011;6804;48.774;9.174;2022-08-21T11:01:24;7.57;;;5.30;;
13463;SDS011;6804;48.774;9.174;2022-08-21T11:04:00;6.20;;;4.25;;
13463;SDS011;6804;48.774;9.174;2022-08-21T11:06:42;5.13;;;3.30;;
13463;SDS011;6804;48.774;9.174;2022-08-21T11:09:18;4.43;;;3.17;;
13463;SDS011;6804;48.774;9.174;2022-08-21T11:11:52;5.88;;;3.40;;
13463;SDS011;6804;48.774;9.174;2022-08-21T11:14:25;3.75;;;2.83;;
13463;SDS011;6804;48.774;9.174;2022-08-21T11:17:02;7.88;;;3.55;;
13463;SDS011;6804;48.774;9.174;2022-08-21T11:19:35;4.45;;;2.90;;
13463;SDS011;6804;48.774;9.174;2022-08-21T11:22:13;5.35;;;3.00;;
13463;SDS011;6804;48.774;9.174;2022-08-21T11:24:47;4.38;;;2.88;;
13463;SDS011;6804;48.774;9.174;2022-08-21T11:27:25;4.68;;;2.85;;
13463;SDS011;6804;48.774;9.174;2022-08-21T11:29:59;5.28;;;2.78;;
13463;SDS011;6804;48.774;9.174;2022-08-21T11:32:43;7.95;;;3.60;;
13463;SDS011;6804;48.774;9.174;2022-08-21T11:35:24;5.38;;;3.40;;
13463;SDS011;6804;48.774;9.174;2022-08-21T11:38:02;6.35;;;3.50;;
13463;SDS011;6804;48.774;9.174;2022-08-21T11:41:03;5.25;;;3.58;;
13463;SDS011;6804;48.774;9.174;2022-08-21T11:43:46;5.70;;;3.28;;
13463;SDS011;6804;48.774;9.174;2022-08-21T11:49:10;5.68;;;3.42;;
13463;SDS011;6804;48.774;9.174;2022-08-21T11:52:08;4.88;;;3.10;;
13463;SDS011;6804;48.774;9.174;2022-08-21T11:54:44;7.15;;;3.28;;
13463;SDS011;6804;48.774;9.174;2022-08-21T11:57:17;5.97;;;3.25;;
13463;SDS011;6804;48.774;9.174;2022-08-21T11:59:52;6.63;;;3.47;;
13463;SDS011;6804;48.774;9.174;2022-08-21T12:02:28;4.53;;;2.85;;
13463;SDS011;6804;48.774;9.174;2022-08-21T12:04:59;4.57;;;2.60;;
13463;SDS011;6804;48.774;9.174;2022-08-21T12:07:32;6.93;;;3.90;;
13463;SDS011;6804;48.774;9.174;2022-08-21T12:10:03;4.57;;;3.30;;
13463;SDS011;6804;48.774;9.174;2022-08-21T12:12:35;4.65;;;3.03;;
13463;SDS011;6804;48.774;9.174;2022-08-21T12:15:23;5.97;;;3.38;;
13463;SDS011;6804;48.774;9.174;2022-08-21T12:17:59;6.15;;;3.10;;
13463;SDS011;6804;48.774;9.174;2022-08-21T12:23:26;4.78;;;3.00;;
13463;SDS011;6804;48.774;9.174;2022-08-21T12:26:00;5.25;;;3.08;;
13463;SDS011;6804;48.774;9.174;2022-08-21T12:28:37;3.60;;;2.67;;
13463;SDS011;6804;48.774;9.174;2022-08-21T12:31:18;4.63;;;2.83;;
13463;SDS011;6804;48.774;9.174;2022-08-21T12:33:49;4.90;;;2.83;;
13463;SDS011;6804;48.774;9.174;2022-08-21T12:36:29;3.60;;;2.63;;
13463;SDS011;6804;48.774;9.174;2022-08-21T12:39:11;6.25;;;2.80;;
13463;SDS011;6804;48.774;9.174;2022-08-21T12:41:49;3.08;;;2.75;;
13463;SDS011;6804;48.774;9.174;2022-08-21T12:44:24;8.23;;;3.80;;
13463;SDS011;6804;48.774;9.174;2022-08-21T12:47:02;7.35;;;4.13;;
13463;SDS011;6804;48.774;9.174;2022-08-21T12:49:43;6.38;;;3.20;;
13463;SDS011;6804;48.774;9.174;2022-08-21T12:52:19;4.80;;;2.95;;
13463;SDS011;6804;48.774;9.174;2022-08-21T12:54:57;4.15;;;3.17;;
13463;SDS011;6804;48.774;9.174;2022-08-21T12:57:28;7.38;;;3.10;;
13463;SDS011;6804;48.774;9.174;2022-08-21T12:59:57;5.28;;;2.92;;
13463;SDS011;6804;48.774;9.174;2022-08-21T13:02:28;4.93;;;3.10;;
13463;SDS011;6804;48.774;9.174;2022-08-21T13:05:01;4.57;;;2.78;;
13463;SDS011;6804;48.774;9.174;2022-08-21T13:07:32;3.88;;;2.85;;
13463;SDS011;6804;48.774;9.174;2022-08-21T13:10:05;5.03;;;2.88;;
13463;SDS011;6804;48.774;9.174;2022-08-21T13:12:47;4.97;;;2.90;;
13463;SDS011;6804;48.774;9.174;2022-08-21T13:15:21;3.97;;;2.65;;
13463;SDS011;6804;48.774;9.174;2022-08-21T13:17:53;5.13;;;3.10;;
13463;SDS011;6804;48.774;9.174;2022-08-21T13:20:28;5.13;;;3.05;;
13463;SDS011;6804;48.774;9.174;2022-08-21T13:22:57;5.93;;;4.00;;
13463;SDS011;6804;48.774;9.174;2022-08-21T13:25:28;6.40;;;4.78;;
13463;SDS011;6804;48.774;9.174;2022-08-21T13:27:58;3.28;;;2.97;;
13463;SDS011;6804;48.774;9.174;2022-08-21T13:30:27;4.50;;;2.90;;
13463;SDS011;6804;48.774;9.174;2022-08-21T13:32:58;3.92;;;3.08;;
13463;SDS011;6804;48.774;9.174;2022-08-21T13:35:30;3.53;;;2.70;;
13463;SDS011;6804;48.774;9.174;2022-08-21T13:38:08;3.92;;;2.78;;
13463;SDS011;6804;48.774;9.174;2022-08-21T13:40:39;5.95;;;3.78;;
13463;SDS011;6804;48.774;9.174;2022-08-21T13:43:12;4.50;;;3.03;;
13463;SDS011;6804;48.774;9.174;2022-08-21T13:45:44;3.88;;;2.85;;
13463;SDS011;6804;48.774;9.174;2022-08-21T13:48:20;4.20;;;2.90;;
13463;SDS011;6804;48.774;9.174;2022-08-21T13:50:49;3.67;;;2.70;;
13463;SDS011;6804;48.774;9.174;2022-08-21T13:53:21;6.22;;;2.85;;
13463;SDS011;6804;48.774;9.174;2022-08-21T13:55:54;4.05;;;2.67;;
13463;SDS011;6804;48.774;9.174;2022-08-21T13:58:28;5.28;;;2.97;;
13463;SDS011;6804;48.774;9.174;2022-08-21T14:01:02;4.15;;;2.70;;
13463;SDS011;6804;48.774;9.174;2022-08-21T14:03:33;4.65;;;2.95;;
13463;SDS011;6804;48.774;9.174;2022-08-21T14:06:11;3.88;;;3.10;;
13463;SDS011;6804;48.774;9.174;2022-08-21T14:08:46;4.78;;;2.90;;
13463;SDS011;6804;48.774;9.174;2022-08-21T14:11:18;5.80;;;4.25;;
13463;SDS011;6804;48.774;9.174;2022-08-21T14:13:51;6.88;;;3.33;;
13463;SDS011;6804;48.774;9.174;2022-08-21T14:16:29;4.40;;;2.90;;
13463;SDS011;6804;48.774;9.174;2022-08-21T14:19:22;4.65;;;2.53;;
13463;SDS011;6804;48.774;9.174;2022-08-21T14:21:52;7.07;;;2.88;;
13463;SDS011;6804;48.774;9.174;2022-08-21T14:24:28;4.72;;;3.60;;
13463;SDS011;6804;48.774;9.174;2022-08-21T14:26:57;7.05;;;3.00;;
13463;SDS011;6804;48.774;9.174;2022-08-21T14:29:33;5.30;;;3.33;;
13463;SDS011;6804;48.774;9.174;2022-08-21T14:32:08;5.72;;;3.45;;
13463;SDS011;6804;48.774;9.174;2022-08-21T14:34:44;5.57;;;2.95;;
13463;SDS011;6804;48.774;9.174;2022-08-21T14:37:12;4.43;;;2.90;;
13463;SDS011;6804;48.774;9.174;2022-08-21T14:39:39;4.50;;;3.17;;
13463;SDS011;6804;48.774;9.174;2022-08-21T14:42:10;6.60;;;3.70;;
13463;SDS011;6804;48.774;9.174;2022-08-21T14:44:39;4.53;;;3.33;;
13463;SDS011;6804;48.774;9.174;2022-08-21T14:47:10;5.75;;;3.97;;
13463;SDS011;6804;48.774;9.174;2022-08-21T14:49:38;4.47;;;2.92;;
13463;SDS011;6804;48.774;9.174;2022-08-21T14:52:09;3.58;;;2.53;;
13463;SDS011;6804;48.774;9.174;2022-08-21T14:54:39;4.35;;;2.80;;
13463;SDS011;6804;48.774;9.174;2022-08-21T14:57:08;4.53;;;2.90;;
13463;SDS011;6804;48.774;9.174;2022-08-21T14:59:38;4.97;;;2.80;;
13463;SDS011;6804;48.774;9.174;2022-08-21T15:02:07;3.55;;;2.60;;
13463;SDS011;6804;48.774;9.174;2022-08-21T15:04:40;4.22;;;2.72;;
13463;SDS011;6804;48.774;9.174;2022-08-21T15:07:10;4.60;;;3.08;;
13463;SDS011;6804;48.774;9.174;2022-08-21T15:09:38;2.60;;;2.38;;
13463;SDS011;6804;48.774;9.174;2022-08-21T15:12:07;4.97;;;2.78;;
13463;SDS011;6804;48.774;9.174;2022-08-21T15:14:36;3.53;;;2.63;;
13463;SDS011;6804;48.774;9.174;2022-08-21T15:17:07;2.90;;;2.40;;
13463;SDS011;6804;48.774;9.174;2022-08-21T15:19:39;6.07;;;3.40;;
13463;SDS011;6804;48.774;9.174;2022-08-21T15:22:07;5.25;;;2.97;;
13463;SDS011;6804;48.774;9.174;2022-08-21T15:24:38;6.90;;;3.00;;
13463;SDS011;6804;48.774;9.174;2022-08-21T15:27:12;8.43;;;5.93;;
13463;SDS011;6804;48.774;9.174;2022-08-21T15:29:42;4.22;;;3.70;;
13463;SDS011;6804;48.774;9.174;2022-08-21T15:32:24;3.85;;;3.17;;
13463;SDS011;6804;48.774;9.174;2022-08-21T15:34:54;4.38;;;2.70;;
13463;SDS011;6804;48.774;9.174;2022-08-21T15:37:22;5.30;;;3.40;;